This is the latest recevied weather packets stored in our database for station/object DH5DY-6. If no packets are shown the sender has not sent any weather packets the latest 10 day(s).
| Time | Temp. | Humidity | Pressure | Rain* | Wind** | Luminosity | Snow |
|---|---|---|---|---|---|---|---|
| 1777913911 | 13.89° C | 93% | 1011.8 hPa | 0.51 mm | - | 62 W/m² | - |
| 1777913312 | 13.89° C | 92% | 1011.9 hPa | 0.51 mm | - | 123 W/m² | - |
| 1777912712 | 13.89° C | 92% | 1012 hPa | 0.51 mm | - | 113 W/m² | - |
| 1777912112 | 13.89° C | 93% | 1011.9 hPa | 0.51 mm | - | 98 W/m² | - |
| 1777911511 | 13.89° C | 92% | 1012 hPa | 0.51 mm | - | 93 W/m² | - |
| 1777910911 | 13.89° C | 92% | 1012.1 hPa | 0.76 mm | - | 79 W/m² | - |
| 1777910312 | 13.89° C | 91% | 1012.2 hPa | 1.02 mm | - | 60 W/m² | - |
| 1777909712 | 13.89° C | 91% | 1012.1 hPa | 4.83 mm | - | 60 W/m² | - |
| 1777909111 | 13.33° C | 91% | 1012.1 hPa | 4.57 mm | - | 58 W/m² | - |
| 1777908512 | 13.89° C | 91% | 1012.1 hPa | 4.57 mm | - | 47 W/m² | - |
| 1777907913 | 13.89° C | 90% | 1011.8 hPa | 4.32 mm | - | 65 W/m² | - |
| 1777907311 | 13.89° C | 88% | 1011.5 hPa | 4.32 mm | - | 51 W/m² | - |
| 1777906712 | 15° C | 83% | 1011.4 hPa | 3.81 mm | - | 32 W/m² | - |
| 1777906111 | 17.78° C | 67% | 1010.9 hPa | 0 mm | - | 21 W/m² | - |
| 1777905512 | 20.56° C | 54% | 1010.2 hPa | 0 mm | - | 135 W/m² | - |
| 1777904911 | 20.56° C | 52% | 1010.2 hPa | 0 mm | - | 209 W/m² | - |
| 1777904312 | 20.56° C | 50% | 1010.1 hPa | 0 mm | - | 230 W/m² | - |
| 1777903711 | 21.11° C | 50% | 1010.1 hPa | 0 mm | - | 216 W/m² | - |
| 1777903111 | 21.67° C | 49% | 1010.3 hPa | 0 mm | - | 287 W/m² | - |
| 1777902511 | 21.67° C | 49% | 1010.3 hPa | 0 mm | - | 431 W/m² | - |
| 1777901911 | 21.11° C | 49% | 1010.4 hPa | 0 mm | - | 652 W/m² | - |
| 1777901311 | 20.56° C | 52% | 1010.5 hPa | 0 mm | - | 394 W/m² | - |
| 1777900711 | 20.56° C | 55% | 1010.5 hPa | 0 mm | - | 214 W/m² | - |
| 1777900111 | 20.56° C | 53% | 1010.5 hPa | 0 mm | - | 244 W/m² | - |
| 1777899510 | 20.56° C | 53% | 1010.6 hPa | 0 mm | - | 708 W/m² | - |
* Rain latest hour (hover to see other rain measurements)
** Current wind speed in m/s (hover to see current wind gust speed)